地図

経路データ

SID SEASON NUMBER BASIN SUBBASIN NAME ISO_TIME NATURE LAT LON WMO_WIND WMO_PRES WMO_AGENCY TRACK_TYPE DIST2LAND LANDFALL IFLAG USA_AGENCY USA_ATCF_ID USA_LAT USA_LON USA_RECORD USA_STATUS USA_WIND USA_PRES USA_SSHS USA_R34_NE USA_R34_SE USA_R34_SW USA_R34_NW USA_R50_NE USA_R50_SE USA_R50_SW USA_R50_NW USA_R64_NE USA_R64_SE USA_R64_SW USA_R64_NW USA_POCI USA_ROCI USA_RMW USA_EYE TOKYO_LAT TOKYO_LON TOKYO_GRADE TOKYO_WIND TOKYO_PRES TOKYO_R50_DIR TOKYO_R50_LONG TOKYO_R50_SHORT TOKYO_R30_DIR TOKYO_R30_LONG TOKYO_R30_SHORT TOKYO_LAND CMA_LAT CMA_LON CMA_CAT CMA_WIND CMA_PRES HKO_LAT HKO_LON HKO_CAT HKO_WIND HKO_PRES NEWDELHI_LAT NEWDELHI_LON NEWDELHI_GRADE NEWDELHI_WIND NEWDELHI_PRES NEWDELHI_CI NEWDELHI_DP NEWDELHI_POCI REUNION_LAT REUNION_LON REUNION_TYPE REUNION_WIND REUNION_PRES REUNION_TNUM REUNION_CI REUNION_RMW REUNION_R34_NE REUNION_R34_SE REUNION_R34_SW REUNION_R34_NW REUNION_R50_NE REUNION_R50_SE REUNION_R50_SW REUNION_R50_NW REUNION_R64_NE REUNION_R64_SE REUNION_R64_SW REUNION_R64_NW BOM_LAT BOM_LON BOM_TYPE BOM_WIND BOM_PRES BOM_TNUM BOM_CI BOM_RMW BOM_R34_NE BOM_R34_SE BOM_R34_SW BOM_R34_NW BOM_R50_NE BOM_R50_SE BOM_R50_SW BOM_R50_NW BOM_R64_NE BOM_R64_SE BOM_R64_SW BOM_R64_NW BOM_ROCI BOM_POCI BOM_EYE BOM_POS_METHOD BOM_PRES_METHOD NADI_LAT NADI_LON NADI_CAT NADI_WIND NADI_PRES WELLINGTON_LAT WELLINGTON_LON WELLINGTON_WIND WELLINGTON_PRES DS824_LAT DS824_LON DS824_STAGE DS824_WIND DS824_PRES TD9636_LAT TD9636_LON TD9636_STAGE TD9636_WIND TD9636_PRES TD9635_LAT TD9635_LON TD9635_WIND TD9635_PRES TD9635_ROCI NEUMANN_LAT NEUMANN_LON NEUMANN_CLASS NEUMANN_WIND NEUMANN_PRES MLC_LAT MLC_LON MLC_CLASS MLC_WIND MLC_PRES USA_GUST BOM_GUST BOM_GUST_PER REUNION_GUST REUNION_GUST_PER USA_SEAHGT USA_SEARAD_NE USA_SEARAD_SE USA_SEARAD_SW USA_SEARAD_NW STORM_SPEED STORM_DIR
1913252N23131 1913 46 WP MM NOT_NAMED 1913-09-09 10:00:00 NR 22.9000 130.900 main 904 871 __________O___ -1 22.9000 130.900 7 9 15
1913252N23131 1913 46 WP MM NOT_NAMED 1913-09-09 12:00:00 NR 23.1854 130.990 main 871 827 __________P___ -1 23.1854 130.990 7 9 15
1913252N23131 1913 46 WP MM NOT_NAMED 1913-09-09 15:00:00 NR 23.5940 131.098 main 827 782 __________P___ -1 23.5940 131.098 7 8 10
1913252N23131 1913 46 WP MM NOT_NAMED 1913-09-09 18:00:00 NR 23.9523 131.136 main 782 760 __________P___ -1 23.9523 131.136 7 6 356
1913252N23131 1913 46 WP MM NOT_NAMED 1913-09-09 21:00:00 NR 24.2304 131.059 main 760 748 __________P___ -1 24.2304 131.059 7 6 340
1913252N23131 1913 46 WP MM NOT_NAMED 1913-09-09 22:00:00 NR 24.3000 131.000 main 748 737 __________O___ -1 24.3000 131.000 7 5 309
1913252N23131 1913 46 WP MM NOT_NAMED 1913-09-10 00:00:00 NR 24.4003 130.827 main 737 725 __________P___ -1 24.4003 130.827 7 6 288
1913252N23131 1913 46 WP MM NOT_NAMED 1913-09-10 03:00:00 NR 24.4629 130.434 main 726 726 __________P___ -1 24.4629 130.434 7 8 273
1913252N23131 1913 46 WP MM NOT_NAMED 1913-09-10 06:00:00 NR 24.4375 129.900 main 741 731 __________P___ -1 24.4375 129.900 7 11 264
1913252N23131 1913 46 WP MM NOT_NAMED 1913-09-10 09:00:00 NR 24.3433 129.243 main 731 711 __________P___ -1 24.3433 129.243 7 12 260
1913252N23131 1913 46 WP MM NOT_NAMED 1913-09-10 10:00:00 NR 24.3000 129.000 main 711 662 __________O___ -1 24.3000 129.000 3 14 259
1913252N23131 1913 46 WP MM NOT_NAMED 1913-09-10 12:00:00 NR 24.2181 128.507 main 662 584 __________P___ -1 24.2181 128.507 3 15 258
1913252N23131 1913 46 WP MM NOT_NAMED 1913-09-10 15:00:00 NR 24.0444 127.673 main 587 502 __________P___ -1 24.0444 127.673 3 16 256
1913252N23131 1913 46 WP MM NOT_NAMED 1913-09-10 18:00:00 NR 23.8263 126.763 main 502 408 __________P___ -1 23.8263 126.763 3 18 255
1913252N23131 1913 46 WP MM NOT_NAMED 1913-09-10 21:00:00 NR 23.5831 125.817 main 408 391 __________P___ -1 23.5831 125.817 3 18 254
1913252N23131 1913 46 WP MM NOT_NAMED 1913-09-10 22:00:00 NR 23.5000 125.500 main 382 328 __________O___ -1 23.5000 125.500 4 18 254
1913252N23131 1913 46 WP MM NOT_NAMED 1913-09-11 00:00:00 NR 23.3414 124.892 main 333 263 __________P___ -1 23.3414 124.892 4 18 254
1913252N23131 1913 46 WP MM NOT_NAMED 1913-09-11 03:00:00 NR 23.0913 123.968 main 263 167 __________P___ -1 23.0913 123.968 4 18 253
1913252N23131 1913 46 WP MM NOT_NAMED 1913-09-11 06:00:00 NR 22.8350 123.036 main 167 90 __________P___ -1 22.8350 123.036 4 18 253
1913252N23131 1913 46 WP MM NOT_NAMED 1913-09-11 09:00:00 NR 22.5820 122.108 main 90 83 __________P___ -1 22.5820 122.108 4 18 254
1913252N23131 1913 46 WP MM NOT_NAMED 1913-09-11 10:00:00 NR 22.5000 121.800 main 75 30 __________O___ -1 22.5000 121.800 4 18 255
1913252N23131 1913 46 WP MM NOT_NAMED 1913-09-11 12:00:00 NR 22.3391 121.158 main 30 0 __________P___ -1 22.3391 121.158 4 18 255
1913252N23131 1913 46 WP MM NOT_NAMED 1913-09-11 15:00:00 NR 22.1045 120.200 main 45 49 __________P___ -1 22.1045 120.200 4 18 255
1913252N23131 1913 46 WP MM NOT_NAMED 1913-09-11 18:00:00 NR 21.8796 119.284 main 122 131 __________P___ -1 21.8796 119.284 4 17 255
1913252N23131 1913 46 WP MM NOT_NAMED 1913-09-11 21:00:00 NR 21.6673 118.452 main 205 215 __________P___ -1 21.6673 118.452 4 16 254
1913252N23131 1913 46 WP MM NOT_NAMED 1913-09-11 22:00:00 NR 21.6000 118.200 main 227 199 __________O___ -1 21.6000 118.200 4 14 253
1913252N23131 1913 46 WP MM NOT_NAMED 1913-09-12 00:00:00 NR 21.4624 117.739 main 199 189 __________P___ -1 21.4624 117.739 4 13 252
1913252N23131 1913 46 WP MM NOT_NAMED 1913-09-12 03:00:00 NR 21.2701 117.134 main 189 189 __________P___ -1 21.2701 117.134 4 11 251
1913252N23131 1913 46 WP MM NOT_NAMED 1913-09-12 06:00:00 NR 21.0969 116.611 main 196 192 __________P___ -1 21.0969 116.611 4 10 251
1913252N23131 1913 46 WP MM NOT_NAMED 1913-09-12 09:00:00 NR 20.9454 116.146 main 203 202 __________P___ -1 20.9454 116.146 4 9 251
1913252N23131 1913 46 WP MM NOT_NAMED 1913-09-12 10:00:00 NR 20.9000 116.000 main 202 201 __________O___ -1 20.9000 116.000 4 9 253
1913252N23131 1913 46 WP MM NOT_NAMED 1913-09-12 12:00:00 NR 20.8181 115.708 main 207 199 __________P___ -1 20.8181 115.708 4 8 254
1913252N23131 1913 46 WP MM NOT_NAMED 1913-09-12 15:00:00 NR 20.7147 115.306 main 205 197 __________P___ -1 20.7147 115.306 4 8 255
1913252N23131 1913 46 WP MM NOT_NAMED 1913-09-12 18:00:00 NR 20.6237 114.925 main 199 192 __________P___ -1 20.6237 114.925 4 7 256
1913252N23131 1913 46 WP MM NOT_NAMED 1913-09-12 21:00:00 NR 20.5326 114.536 main 202 201 __________P___ -1 20.5326 114.536 4 8 256
1913252N23131 1913 46 WP MM NOT_NAMED 1913-09-12 22:00:00 NR 20.5000 114.400 main 201 201 __________O___ -1 20.5000 114.400 4 9 253
1913252N23131 1913 46 WP MM NOT_NAMED 1913-09-13 00:00:00 NR 20.4066 114.100 main 202 189 __________P___ -1 20.4066 114.100 4 9 252
1913252N23131 1913 46 WP MM NOT_NAMED 1913-09-13 03:00:00 NR 20.2598 113.632 main 189 189 __________P___ -1 20.2598 113.632 4 9 252
1913252N23131 1913 46 WP MM NOT_NAMED 1913-09-13 06:00:00 NR 20.1245 113.149 main 197 183 __________P___ -1 20.1245 113.149 4 9 255
1913252N23131 1913 46 WP MM NOT_NAMED 1913-09-13 09:00:00 NR 20.0227 112.662 main 183 163 __________P___ -1 20.0227 112.662 4 9 258
1913252N23131 1913 46 WP MM NOT_NAMED 1913-09-13 10:00:00 NR 20.0000 112.500 main 163 133 __________O___ -1 20.0000 112.500 4 9 262
1913252N23131 1913 46 WP MM NOT_NAMED 1913-09-13 12:00:00 NR 19.9614 112.168 main 133 80 __________P___ -1 19.9614 112.168 4 9 266
1913252N23131 1913 46 WP MM NOT_NAMED 1913-09-13 15:00:00 NR 19.9411 111.669 main 80 33 __________P___ -1 19.9411 111.669 4 9 271
1913252N23131 1913 46 WP MM NOT_NAMED 1913-09-13 18:00:00 NR 19.9710 111.186 main 33 0 __________P___ -1 19.9710 111.186 4 9 278
1913252N23131 1913 46 WP MM NOT_NAMED 1913-09-13 21:00:00 NR 20.0575 110.738 main 0 0 __________P___ -1 20.0575 110.738 4 8 283
1913252N23131 1913 46 WP MM NOT_NAMED 1913-09-13 22:00:00 NR 20.1000 110.600 main 0 0 __________O___ -1 20.1000 110.600 4 8 290
1913252N23131 1913 46 WP MM NOT_NAMED 1913-09-14 00:00:00 NR 20.1960 110.344 main 0 0 __________P___ -1 20.1960 110.344 4 8 297
1913252N23131 1913 46 WP MM NOT_NAMED 1913-09-14 03:00:00 NR 20.3908 109.997 main 0 0 __________P___ -1 20.3908 109.997 4 8 305
1913252N23131 1913 46 WP MM NOT_NAMED 1913-09-14 06:00:00 NR 20.6323 109.685 main 10 10 __________P___ -1 20.6323 109.685 4 8 312
1913252N23131 1913 46 WP MM NOT_NAMED 1913-09-14 09:00:00 NR 20.9050 109.394 main 31 31 __________P___ -1 20.9050 109.394 4 8 316
1913252N23131 1913 46 WP MM NOT_NAMED 1913-09-14 10:00:00 NR 21.0000 109.300 main 41 24 __________O___ -1 21.0000 109.300 4 8 315
1913252N23131 1913 46 WP MM NOT_NAMED 1913-09-14 12:00:00 NR 21.1721 109.110 main 24 22 __________P___ -1 21.1721 109.110 4 7 316
1913252N23131 1913 46 WP MM NOT_NAMED 1913-09-14 15:00:00 NR 21.4492 108.838 main 22 0 __________P___ -1 21.4492 108.838 4 8 319
1913252N23131 1913 46 WP MM NOT_NAMED 1913-09-14 18:00:00 NR 21.7517 108.571 main 0 0 __________P___ -1 21.7517 108.571 4 8 322
1913252N23131 1913 46 WP MM NOT_NAMED 1913-09-14 21:00:00 NR 22.0828 108.296 main 0 0 __________P___ -1 22.0828 108.296 4 9 323
1913252N23131 1913 46 WP MM NOT_NAMED 1913-09-14 22:00:00 NR 22.2000 108.200 main 0 0 __________O___ -1 22.2000 108.200 2 9 322
1913252N23131 1913 46 WP MM NOT_NAMED 1913-09-15 00:00:00 NR 22.4333 107.994 main 0 0 __________P___ -1 22.4333 107.994 2 9 321
1913252N23131 1913 46 WP MM NOT_NAMED 1913-09-15 03:00:00 NR 22.8083 107.674 main 0 0 __________P___ -1 22.8083 107.674 2 10 322
1913252N23131 1913 46 WP MM NOT_NAMED 1913-09-15 06:00:00 NR 23.2133 107.344 main 0 0 __________P___ -1 23.2133 107.344 2 10 324
1913252N23131 1913 46 WP MM NOT_NAMED 1913-09-15 09:00:00 NR 23.6483 107.011 main 0 0 __________P___ -1 23.6483 107.011 2 11 325
1913252N23131 1913 46 WP MM NOT_NAMED 1913-09-15 10:00:00 NR 23.8000 106.900 main 0 0 __________O___ -1 23.8000 106.900 2 11 327
1913252N23131 1913 46 WP MM NOT_NAMED 1913-09-15 12:00:00 NR 24.1131 106.681 main 0 0 __________P___ -1 24.1131 106.681 2 11 328
1913252N23131 1913 46 WP MM NOT_NAMED 1913-09-15 15:00:00 NR 24.6029 106.355 main 0 0 __________P___ -1 24.6029 106.355 2 12 329
1913252N23131 1913 46 WP MM NOT_NAMED 1913-09-15 18:00:00 NR 25.1101 106.032 main 0 0 __________P___ -1 25.1101 106.032 2 12 330
1913252N23131 1913 46 WP MM NOT_NAMED 1913-09-15 21:00:00 NR 25.6269 105.708 main 0 0 __________P___ -1 25.6269 105.708 2 12 331
1913252N23131 1913 46 WP MM NOT_NAMED 1913-09-15 22:00:00 NR 25.8000 105.600 main 0 __________O___ -1 25.8000 105.600 2 12 331

デジタル台風データ・検索

IBTrACS Databaseについて

本データベースは、米国NOAAが公開する1842年以降の世界の熱帯低気圧のベストトラックデータアーカイブInternational Best Track Archive for Climate Stewardship (IBTrACS)を、ウェブで閲覧しやすい形式に変換したものです。

最終更新日:2021-11-26